You are not logged in, Click here to log in
ICAO: ZBAA Country: 大陸北京市顺义区
Latitude: 40.0799 Longitude: 116.603
Total Arrivals: 36 Total Departures: 39
Latest Arrival: FS71 (ZUUU-ZBAA)CHU. CHUHAO Latest Departure: CZ317 (ZBAA-RKSS)CHU. CHUHAO
Scenery:
METAR : ZBAA 171300Z VRB01MPS 8000 NSC 21/19 Q1006 NOSIG

北京首都國際機場(PEK)